Time,TemperatureF,DewpointF,PressureIn,WindDirection,WindDirectionDegrees,WindSpeedMPH,WindSpeedGustMPH,Humidity,HourlyPrecipIn,Conditions,Clouds,dailyrainin,SoftwareType,DateUTC
2013-05-06 00:02:00,55.0,48.0,30.08,North,0,0.0,-999.0,76,0.00,,,-99.99,,2013-05-06 04:02:00,
2013-05-06 00:12:00,54.0,46.0,30.07,North,0,0.0,-999.0,76,0.00,,,-99.99,,2013-05-06 04:12:00,
2013-05-06 00:22:00,52.0,46.0,30.07,North,0,0.0,-999.0,81,0.00,,,-99.99,,2013-05-06 04:22:00,
2013-05-06 00:32:00,52.0,46.0,30.07,North,0,0.0,-999.0,81,0.00,,,-99.99,,2013-05-06 04:32:00,
2013-05-06 00:42:00,52.0,46.0,30.07,North,0,0.0,-999.0,81,0.00,,,-99.99,,2013-05-06 04:42:00,
2013-05-06 00:52:00,48.0,46.0,30.07,North,0,0.0,-999.0,93,0.00,,,-99.99,,2013-05-06 04:52:00,
2013-05-06 01:02:00,48.0,46.0,30.07,North,0,0.0,-999.0,93,0.00,,,-99.99,,2013-05-06 05:02:00,
2013-05-06 01:12:00,48.0,46.0,30.07,North,0,0.0,-999.0,93,0.00,,,-99.99,,2013-05-06 05:12:00,
2013-05-06 01:21:00,48.0,46.0,30.07,North,0,0.0,-999.0,93,0.00,,,-99.99,,2013-05-06 05:21:00,
2013-05-06 01:31:00,48.0,46.0,30.07,North,0,0.0,-999.0,93,0.00,,,-99.99,,2013-05-06 05:31:00,
2013-05-06 01:42:00,48.0,46.0,30.07,North,0,0.0,-999.0,93,0.00,,,-99.99,,2013-05-06 05:42:00,
2013-05-06 01:52:00,46.0,46.0,30.07,North,0,0.0,-999.0,100,0.00,,,-99.99,,2013-05-06 05:52:00,
2013-05-06 02:02:00,46.0,46.0,30.07,North,0,0.0,-999.0,100,0.00,,,-99.99,,2013-05-06 06:02:00,
2013-05-06 02:11:00,46.0,45.0,30.07,North,0,0.0,-999.0,93,0.00,,,-99.99,,2013-05-06 06:11:00,
2013-05-06 02:21:00,45.0,45.0,30.07,North,0,0.0,-999.0,100,0.00,,,-99.99,,2013-05-06 06:21:00,
2013-05-06 02:31:00,45.0,45.0,30.06,North,0,0.0,-999.0,100,0.00,,,-99.99,,2013-05-06 06:31:00,
2013-05-06 02:41:00,45.0,45.0,30.06,North,0,0.0,-999.0,100,0.00,,,-99.99,,2013-05-06 06:41:00,
2013-05-06 02:51:00,45.0,45.0,30.06,North,0,0.0,-999.0,100,0.00,,,-99.99,,2013-05-06 06:51:00,
2013-05-06 03:01:00,45.0,45.0,30.06,North,0,0.0,-999.0,100,0.00,,,-99.99,,2013-05-06 07:01:00,
2013-05-06 03:11:00,45.0,45.0,30.06,North,0,0.0,-999.0,100,0.00,,,-99.99,,2013-05-06 07:11:00,
2013-05-06 03:21:00,45.0,45.0,30.06,North,0,0.0,-999.0,100,0.00,,,-99.99,,2013-05-06 07:21:00,
2013-05-06 03:31:00,45.0,43.0,30.05,North,0,0.0,-999.0,93,0.00,,,-99.99,,2013-05-06 07:31:00,
2013-05-06 03:41:00,45.0,43.0,30.05,North,0,0.0,-999.0,93,0.00,,,-99.99,,2013-05-06 07:41:00,
2013-05-06 03:51:00,45.0,43.0,30.05,North,0,0.0,-999.0,93,0.00,,,-99.99,,2013-05-06 07:51:00,
2013-05-06 04:01:00,45.0,43.0,30.05,North,0,0.0,-999.0,93,0.00,,,-99.99,,2013-05-06 08:01:00,
2013-05-06 04:11:00,43.0,43.0,30.05,North,0,0.0,-999.0,100,0.00,,,-99.99,,2013-05-06 08:11:00,
2013-05-06 04:21:00,43.0,43.0,30.05,North,0,0.0,-999.0,100,0.00,,,-99.99,,2013-05-06 08:21:00,
2013-05-06 04:31:00,43.0,43.0,30.05,NNW,330,3.0,-999.0,100,0.00,,,-99.99,,2013-05-06 08:31:00,
2013-05-06 04:41:00,43.0,43.0,30.05,North,0,0.0,-999.0,100,0.00,,,-99.99,,2013-05-06 08:41:00,
2013-05-06 04:52:00,43.0,43.0,30.05,North,0,0.0,-999.0,100,0.00,,,-99.99,,2013-05-06 08:52:00,
2013-05-06 05:01:00,43.0,43.0,30.05,North,0,0.0,-999.0,100,0.00,,,-99.99,,2013-05-06 09:01:00,
2013-05-06 05:11:00,43.0,43.0,30.05,North,0,0.0,-999.0,100,0.00,,,-99.99,,2013-05-06 09:11:00,
2013-05-06 05:21:00,43.0,41.0,30.05,North,0,0.0,-999.0,93,0.00,,,-99.99,,2013-05-06 09:21:00,
2013-05-06 05:32:00,43.0,43.0,30.05,North,0,0.0,-999.0,100,0.00,,,-99.99,,2013-05-06 09:32:00,
2013-05-06 05:42:00,43.0,43.0,30.05,North,0,0.0,-999.0,100,0.00,,,-99.99,,2013-05-06 09:42:00,
2013-05-06 05:53:00,43.0,41.0,30.05,North,0,0.0,-999.0,93,0.00,,,-99.99,,2013-05-06 09:53:00,
2013-05-06 06:02:00,43.0,41.0,30.05,North,0,0.0,-999.0,93,0.00,,,-99.99,,2013-05-06 10:02:00,
2013-05-06 06:12:00,41.0,41.0,30.06,North,0,0.0,-999.0,100,0.00,,,-99.99,,2013-05-06 10:12:00,
2013-05-06 06:21:00,41.0,39.0,30.06,North,0,0.0,-999.0,93,0.00,,,-99.99,,2013-05-06 10:21:00,
2013-05-06 06:32:00,41.0,39.0,30.06,North,0,0.0,-999.0,93,0.00,,,-99.99,,2013-05-06 10:32:00,
2013-05-06 06:41:00,41.0,39.0,30.06,North,0,0.0,-999.0,93,0.00,,,-99.99,,2013-05-06 10:41:00,
2013-05-06 06:52:00,41.0,39.0,30.06,North,0,0.0,-999.0,93,0.00,,,-99.99,,2013-05-06 10:52:00,
2013-05-06 07:02:00,41.0,39.0,30.06,North,0,0.0,-999.0,93,0.00,,,-99.99,,2013-05-06 11:02:00,
2013-05-06 07:11:00,41.0,39.0,30.06,North,0,0.0,-999.0,93,0.00,,,-99.99,,2013-05-06 11:11:00,
2013-05-06 07:21:00,43.0,41.0,30.07,North,0,0.0,-999.0,93,0.00,,,-99.99,,2013-05-06 11:21:00,
2013-05-06 07:31:00,45.0,43.0,30.07,North,0,0.0,-999.0,93,0.00,,,-99.99,,2013-05-06 11:31:00,
2013-05-06 07:41:00,45.0,45.0,30.07,North,0,0.0,-999.0,100,0.00,,,-99.99,,2013-05-06 11:41:00,
2013-05-06 07:52:00,46.0,46.0,30.08,North,0,0.0,-999.0,100,0.00,,,-99.99,,2013-05-06 11:52:00,
2013-05-06 08:01:00,46.0,46.0,30.08,North,0,0.0,-999.0,100,0.00,,,-99.99,,2013-05-06 12:01:00,
2013-05-06 08:12:00,52.0,46.0,30.08,North,0,0.0,-999.0,81,0.00,,,0.00,,2013-05-06 12:12:00,
2013-05-06 08:21:00,54.0,48.0,30.08,East,80,5.0,-999.0,81,0.00,,,0.00,,2013-05-06 12:21:00,
2013-05-06 08:31:00,55.0,46.0,30.08,ENE,70,5.0,-999.0,71,0.00,,,0.00,,2013-05-06 12:31:00,
2013-05-06 08:41:00,55.0,46.0,30.09,ENE,70,5.0,-999.0,71,0.00,,,0.00,,2013-05-06 12:41:00,
2013-05-06 08:51:00,57.0,46.0,30.09,ENE,60,6.0,-999.0,67,0.00,,,0.00,,2013-05-06 12:51:00,
2013-05-06 09:01:00,57.0,46.0,30.09,ENE,60,6.0,-999.0,67,0.00,,,0.00,,2013-05-06 13:01:00,
2013-05-06 09:11:00,57.0,46.0,30.09,ENE,70,5.0,-999.0,67,0.00,,,-99.99,,2013-05-06 13:11:00,
2013-05-06 09:21:00,59.0,48.0,30.09,ENE,60,5.0,-999.0,67,0.00,,,-99.99,,2013-05-06 13:21:00,
2013-05-06 09:31:00,59.0,48.0,30.09,ENE,60,5.0,-999.0,67,0.00,,,-99.99,,2013-05-06 13:31:00,
2013-05-06 09:41:00,59.0,48.0,30.09,ENE,60,5.0,-999.0,67,0.00,,,-99.99,,2013-05-06 13:41:00,
2013-05-06 09:51:00,63.0,48.0,30.09,North,0,0.0,-999.0,59,0.00,,,-99.99,,2013-05-06 13:51:00,
2013-05-06 10:01:00,63.0,48.0,30.09,North,0,0.0,-999.0,59,0.00,,,-99.99,,2013-05-06 14:01:00,
2013-05-06 10:11:00,63.0,46.0,30.09,ENE,70,5.0,-999.0,55,0.00,,,-99.99,,2013-05-06 14:11:00,
2013-05-06 10:21:00,64.0,45.0,30.09,East,90,3.0,-999.0,48,0.00,,,-99.99,,2013-05-06 14:21:00,
2013-05-06 10:31:00,64.0,45.0,30.08,ESE,110,3.0,-999.0,48,0.00,,,-99.99,,2013-05-06 14:31:00,
2013-05-06 10:41:00,64.0,46.0,30.08,ESE,110,5.0,-999.0,51,0.00,,,-99.99,,2013-05-06 14:41:00,
2013-05-06 10:51:00,66.0,45.0,30.08,ESE,120,6.0,-999.0,45,0.00,,,-99.99,,2013-05-06 14:51:00,
2013-05-06 11:01:00,66.0,45.0,30.08,ESE,120,6.0,-999.0,45,0.00,,,-99.99,,2013-05-06 15:01:00,
2013-05-06 11:11:00,66.0,45.0,30.08,ESE,110,3.0,-999.0,45,0.00,,,-99.99,,2013-05-06 15:11:00,
2013-05-06 11:21:00,70.0,46.0,30.07,ESE,120,5.0,-999.0,43,0.00,,,-99.99,,2013-05-06 15:21:00,
2013-05-06 11:32:00,70.0,46.0,30.07,East,100,8.0,-999.0,43,0.00,,,-99.99,,2013-05-06 15:32:00,
2013-05-06 11:42:00,70.0,45.0,30.07,East,80,9.0,-999.0,40,0.00,,,-99.99,,2013-05-06 15:42:00,
2013-05-06 11:53:00,72.0,45.0,30.07,East,90,7.0,-999.0,37,0.00,,,-99.99,,2013-05-06 15:53:00,
2013-05-06 12:02:00,72.0,45.0,30.07,East,90,7.0,-999.0,37,0.00,,,-99.99,,2013-05-06 16:02:00,
2013-05-06 12:12:00,72.0,45.0,30.07,East,80,8.0,-999.0,37,0.00,,,-99.99,,2013-05-06 16:12:00,
2013-05-06 12:22:00,72.0,43.0,30.07,East,100,12.0,-999.0,35,0.00,,,-99.99,,2013-05-06 16:22:00,
2013-05-06 12:32:00,73.0,43.0,30.06,East,90,12.0,-999.0,33,0.00,,,-99.99,,2013-05-06 16:32:00,
2013-05-06 12:41:00,73.0,39.0,30.06,East,100,9.0,-999.0,28,0.00,,,-99.99,,2013-05-06 16:41:00,
2013-05-06 12:52:00,73.0,39.0,30.06,ENE,70,10.0,17.0,28,0.00,,,-99.99,,2013-05-06 16:52:00,
2013-05-06 13:02:00,73.0,39.0,30.06,ENE,70,10.0,17.0,28,0.00,,,-99.99,,2013-05-06 17:02:00,
2013-05-06 13:11:00,73.0,39.0,30.06,ENE,60,8.0,-999.0,28,0.00,,,-99.99,,2013-05-06 17:11:00,
2013-05-06 13:22:00,73.0,37.0,30.06,East,90,13.0,-999.0,26,0.00,,,-99.99,,2013-05-06 17:22:00,
2013-05-06 13:31:00,73.0,37.0,30.05,East,90,10.0,-999.0,26,0.00,,,-99.99,,2013-05-06 17:31:00,
2013-05-06 13:42:00,73.0,37.0,30.05,East,100,13.0,-999.0,26,0.00,,,-99.99,,2013-05-06 17:42:00,
2013-05-06 13:52:00,73.0,37.0,30.05,ENE,70,13.0,18.0,26,0.00,,,-99.99,,2013-05-06 17:52:00,
2013-05-06 14:01:00,73.0,37.0,30.05,ENE,70,13.0,18.0,26,0.00,,,-99.99,,2013-05-06 18:01:00,
2013-05-06 14:11:00,73.0,36.0,30.05,ESE,110,14.0,20.0,25,0.00,,,-99.99,,2013-05-06 18:11:00,
2013-05-06 14:21:00,73.0,36.0,30.05,East,100,12.0,18.0,25,0.00,,,-99.99,,2013-05-06 18:21:00,
2013-05-06 14:31:00,73.0,37.0,30.04,East,100,10.0,18.0,26,0.00,,,-99.99,,2013-05-06 18:31:00,
2013-05-06 14:42:00,73.0,37.0,30.04,East,100,12.0,17.0,26,0.00,,,-99.99,,2013-05-06 18:42:00,
2013-05-06 14:52:00,75.0,37.0,30.04,East,80,13.0,20.0,25,0.00,,,-99.99,,2013-05-06 18:52:00,
2013-05-06 15:01:00,75.0,37.0,30.04,East,80,13.0,20.0,25,0.00,,,-99.99,,2013-05-06 19:01:00,
2013-05-06 15:11:00,75.0,37.0,30.04,East,80,8.0,-999.0,25,0.00,,,-99.99,,2013-05-06 19:11:00,
2013-05-06 15:21:00,75.0,37.0,30.03,East,90,10.0,17.0,25,0.00,,,-99.99,,2013-05-06 19:21:00,
2013-05-06 15:32:00,75.0,37.0,30.03,East,100,9.0,17.0,25,0.00,,,-99.99,,2013-05-06 19:32:00,
2013-05-06 15:41:00,75.0,37.0,30.03,ENE,70,12.0,17.0,25,0.00,,,-99.99,,2013-05-06 19:41:00,
2013-05-06 15:51:00,75.0,36.0,30.02,ESE,120,12.0,16.0,23,0.00,,,-99.99,,2013-05-06 19:51:00,
2013-05-06 16:01:00,75.0,36.0,30.02,ESE,120,12.0,16.0,23,0.00,,,-99.99,,2013-05-06 20:01:00,
2013-05-06 16:11:00,75.0,36.0,30.02,ENE,70,12.0,18.0,23,0.00,,,-99.99,,2013-05-06 20:11:00,
2013-05-06 16:21:00,75.0,36.0,30.01,East,80,13.0,16.0,23,0.00,,,-99.99,,2013-05-06 20:21:00,
2013-05-06 16:31:00,75.0,36.0,30.01,ENE,70,14.0,18.0,23,0.00,,,-99.99,,2013-05-06 20:31:00,
2013-05-06 16:41:00,75.0,36.0,30.01,East,80,8.0,18.0,23,0.00,,,-99.99,,2013-05-06 20:41:00,
2013-05-06 16:52:00,75.0,36.0,30.00,East,80,12.0,18.0,23,0.00,,,-99.99,,2013-05-06 20:52:00,
2013-05-06 17:01:00,75.0,36.0,30.00,East,80,12.0,18.0,23,0.00,,,-99.99,,2013-05-06 21:01:00,
2013-05-06 17:11:00,73.0,36.0,30.00,East,90,12.0,-999.0,25,0.00,,,-99.99,,2013-05-06 21:11:00,
2013-05-06 17:21:00,75.0,36.0,30.00,East,100,14.0,-999.0,23,0.00,,,-99.99,,2013-05-06 21:21:00,
2013-05-06 17:32:00,75.0,34.0,30.00,East,80,10.0,16.0,22,0.00,,,-99.99,,2013-05-06 21:32:00,
2013-05-06 17:42:00,73.0,36.0,30.00,East,90,12.0,16.0,25,0.00,,,-99.99,,2013-05-06 21:42:00,
2013-05-06 17:53:00,73.0,36.0,30.00,East,80,9.0,-999.0,25,0.00,,,-99.99,,2013-05-06 21:53:00,
2013-05-06 18:02:00,73.0,36.0,30.00,East,80,9.0,-999.0,25,0.00,,,-99.99,,2013-05-06 22:02:00,
2013-05-06 18:12:00,73.0,36.0,29.99,ENE,70,12.0,16.0,25,0.00,,,-99.99,,2013-05-06 22:12:00,
2013-05-06 18:22:00,72.0,36.0,29.99,ENE,70,8.0,16.0,26,0.00,,,-99.99,,2013-05-06 22:22:00,
2013-05-06 18:33:00,72.0,36.0,30.00,ENE,60,7.0,-999.0,26,0.00,,,-99.99,,2013-05-06 22:33:00,
2013-05-06 18:45:00,72.0,34.0,29.99,ENE,70,8.0,-999.0,24,0.00,,,-99.99,,2013-05-06 22:45:00,
2013-05-06 18:52:00,72.0,34.0,29.99,ENE,70,10.0,-999.0,24,0.00,,,-99.99,,2013-05-06 22:52:00,
2013-05-06 19:02:00,72.0,34.0,29.99,ENE,70,10.0,-999.0,24,0.00,,,-99.99,,2013-05-06 23:02:00,
2013-05-06 19:11:00,72.0,34.0,30.00,NE,50,8.0,-999.0,24,0.00,,,-99.99,,2013-05-06 23:11:00,
2013-05-06 19:22:00,70.0,34.0,30.00,ENE,60,9.0,-999.0,26,0.00,,,-99.99,,2013-05-06 23:22:00,
2013-05-06 19:31:00,70.0,36.0,30.00,ENE,60,6.0,-999.0,28,0.00,,,-99.99,,2013-05-06 23:31:00,
2013-05-06 19:41:00,70.0,34.0,30.00,ENE,70,6.0,-999.0,26,0.00,,,-99.99,,2013-05-06 23:41:00,
2013-05-06 19:52:00,68.0,36.0,30.00,ENE,60,6.0,-999.0,30,0.00,,,-99.99,,2013-05-06 23:52:00,
2013-05-06 20:01:00,68.0,36.0,30.00,ENE,60,6.0,-999.0,30,0.00,,,-99.99,,2013-05-07 00:01:00,
2013-05-06 20:11:00,68.0,34.0,30.00,ENE,60,3.0,-999.0,28,0.00,,,-99.99,,2013-05-07 00:11:00,
2013-05-06 20:21:00,66.0,34.0,30.01,ENE,60,3.0,-999.0,29,0.00,,,-99.99,,2013-05-07 00:21:00,
2013-05-06 20:31:00,64.0,34.0,30.01,ENE,70,3.0,-999.0,31,0.00,,,-99.99,,2013-05-07 00:31:00,
2013-05-06 20:41:00,64.0,34.0,30.01,ENE,60,3.0,-999.0,31,0.00,,,-99.99,,2013-05-07 00:41:00,
2013-05-06 20:51:00,64.0,34.0,30.01,North,0,0.0,-999.0,31,0.00,,,-99.99,,2013-05-07 00:51:00,
2013-05-06 21:01:00,64.0,34.0,30.01,North,0,0.0,-999.0,31,0.00,,,-99.99,,2013-05-07 01:01:00,
2013-05-06 21:11:00,63.0,36.0,30.01,NE,40,5.0,-999.0,36,0.00,,,-99.99,,2013-05-07 01:11:00,
2013-05-06 21:21:00,61.0,36.0,30.02,North,0,0.0,-999.0,38,0.00,,,-99.99,,2013-05-07 01:21:00,
2013-05-06 21:31:00,59.0,37.0,30.02,East,80,5.0,-999.0,44,0.00,,,-99.99,,2013-05-07 01:31:00,
2013-05-06 21:41:00,57.0,37.0,30.02,East,80,3.0,-999.0,47,0.00,,,-99.99,,2013-05-07 01:41:00,
2013-05-06 21:52:00,59.0,37.0,30.02,ENE,60,3.0,-999.0,44,0.00,,,-99.99,,2013-05-07 01:52:00,
2013-05-06 22:01:00,59.0,37.0,30.02,ENE,60,3.0,-999.0,44,0.00,,,-99.99,,2013-05-07 02:01:00,
2013-05-06 22:11:00,57.0,37.0,30.02,North,0,0.0,-999.0,47,0.00,,,-99.99,,2013-05-07 02:11:00,
2013-05-06 22:21:00,54.0,39.0,30.03,North,0,0.0,-999.0,58,0.00,,,-99.99,,2013-05-07 02:21:00,
2013-05-06 22:31:00,55.0,39.0,30.03,North,0,0.0,-999.0,54,0.00,,,-99.99,,2013-05-07 02:31:00,
2013-05-06 22:41:00,54.0,39.0,30.03,North,0,0.0,-999.0,58,0.00,,,-99.99,,2013-05-07 02:41:00,
2013-05-06 22:51:00,54.0,43.0,30.03,North,0,0.0,-999.0,66,0.00,,,-99.99,,2013-05-07 02:51:00,
2013-05-06 23:01:00,54.0,43.0,30.03,North,0,0.0,-999.0,66,0.00,,,-99.99,,2013-05-07 03:01:00,
2013-05-06 23:11:00,52.0,41.0,30.03,North,0,0.0,-999.0,66,0.00,,,-99.99,,2013-05-07 03:11:00,
2013-05-06 23:21:00,54.0,41.0,30.03,North,0,0.0,-999.0,62,0.00,,,-99.99,,2013-05-07 03:21:00,
2013-05-06 23:32:00,52.0,41.0,30.03,North,0,0.0,-999.0,66,0.00,,,-99.99,,2013-05-07 03:32:00,
2013-05-06 23:42:00,52.0,41.0,30.03,North,0,0.0,-999.0,66,0.00,,,-99.99,,2013-05-07 03:42:00,
2013-05-06 23:53:00,52.0,43.0,30.03,North,0,0.0,-999.0,71,0.00,,,-99.99,,2013-05-07 03:53:00,